createdAt,value
2023-02-17T00:01:28.172Z,23.75
2023-02-17T00:03:55.193Z,23.92
2023-02-17T00:06:26.196Z,25.13
2023-02-17T00:08:52.769Z,25.73
2023-02-17T00:11:20.014Z,24.98
2023-02-17T00:13:49.103Z,24.80
2023-02-17T00:16:19.770Z,24.50
2023-02-17T00:18:47.279Z,25.15
2023-02-17T00:21:17.280Z,24.33
2023-02-17T00:23:45.236Z,25.02
2023-02-17T00:26:13.968Z,25.35
2023-02-17T00:28:40.605Z,25.08
2023-02-17T00:31:13.732Z,24.50
2023-02-17T00:33:40.522Z,24.00
2023-02-17T00:36:10.674Z,24.58
2023-02-17T00:38:37.268Z,25.48
2023-02-17T00:41:04.337Z,24.92
2023-02-17T00:43:30.973Z,25.67
2023-02-17T00:45:57.515Z,25.08
2023-02-17T00:48:26.518Z,25.20
2023-02-17T00:50:55.215Z,25.08
2023-02-17T00:53:21.718Z,25.35
2023-02-17T00:55:48.505Z,24.52
2023-02-17T00:58:15.100Z,25.75
2023-02-17T01:00:41.979Z,26.00
2023-02-17T01:03:10.848Z,25.35
2023-02-17T01:05:46.193Z,24.52
2023-02-17T01:08:13.081Z,26.17
2023-02-17T01:10:41.211Z,24.27
2023-02-17T01:13:08.202Z,23.92
2023-02-17T01:15:43.427Z,25.38
2023-02-17T01:18:09.897Z,25.25
2023-02-17T01:20:38.531Z,24.20
2023-02-17T01:23:06.655Z,24.13
2023-02-17T01:25:39.622Z,25.55
2023-02-17T01:28:07.876Z,26.15
2023-02-17T01:30:35.149Z,25.48
2023-02-17T01:33:01.684Z,25.48
2023-02-17T01:35:28.215Z,24.55
2023-02-17T01:37:54.659Z,24.38
2023-02-17T01:40:21.163Z,24.02
2023-02-17T01:42:47.639Z,23.20
2023-02-17T01:45:17.230Z,24.30
2023-02-17T01:47:54.169Z,23.63
2023-02-17T01:50:24.694Z,24.23
2023-02-17T01:52:54.760Z,24.55
2023-02-17T01:55:23.497Z,24.25
2023-02-17T01:57:53.890Z,23.73
2023-02-17T02:00:23.259Z,23.70
2023-02-17T02:02:50.771Z,23.67
2023-02-17T02:05:19.747Z,25.13
2023-02-17T02:07:48.903Z,23.83
2023-02-17T02:10:17.180Z,23.30
2023-02-17T02:12:44.432Z,23.45
2023-02-17T02:15:17.218Z,22.00
2023-02-17T02:18:08.485Z,22.83
2023-02-17T02:20:59.232Z,22.98
2023-02-17T02:23:31.601Z,23.00
2023-02-17T02:26:22.800Z,22.50
2023-02-17T02:29:11.023Z,22.30
2023-02-17T02:31:50.139Z,22.83
2023-02-17T02:34:35.547Z,22.52
2023-02-17T02:37:20.830Z,23.10
2023-02-17T02:39:53.957Z,22.67
2023-02-17T02:42:24.172Z,23.10
2023-02-17T02:44:51.366Z,23.10
2023-02-17T02:47:39.368Z,23.45
2023-02-17T02:50:06.840Z,21.50
2023-02-17T02:53:07.539Z,22.50
2023-02-17T02:55:54.142Z,23.08
2023-02-17T02:58:45.470Z,22.40
2023-02-17T03:01:18.553Z,21.13
2023-02-17T03:04:26.582Z,21.30
2023-02-17T03:07:00.112Z,21.38
2023-02-17T03:09:27.687Z,21.65
2023-02-17T03:12:00.257Z,22.55
2023-02-17T03:14:28.561Z,21.77
2023-02-17T03:16:57.861Z,21.23
2023-02-17T03:19:25.631Z,22.05
2023-02-17T03:21:58.257Z,22.25
2023-02-17T03:24:30.101Z,22.08
2023-02-17T03:26:56.582Z,22.20
2023-02-17T03:29:23.148Z,21.45
2023-02-17T03:31:49.645Z,22.63
2023-02-17T03:34:18.563Z,22.45
2023-02-17T03:36:45.083Z,21.70
2023-02-17T03:39:11.586Z,22.45
2023-02-17T03:41:38.089Z,22.30
2023-02-17T03:44:05.112Z,21.67
2023-02-17T03:46:31.588Z,21.85
2023-02-17T03:48:58.129Z,20.80
2023-02-17T03:51:25.675Z,20.38
2023-02-17T03:53:55.038Z,20.17
2023-02-17T03:56:21.542Z,21.08
2023-02-17T03:58:48.057Z,20.27
2023-02-17T04:01:14.726Z,20.52
2023-02-17T04:03:42.039Z,20.17
2023-02-17T04:06:10.442Z,20.42
2023-02-17T04:08:37.347Z,19.85
2023-02-17T04:11:05.402Z,21.17
2023-02-17T04:13:32.809Z,19.75
2023-02-17T04:16:01.453Z,19.55
2023-02-17T04:18:28.220Z,20.33
2023-02-17T04:20:54.790Z,19.63
2023-02-17T04:23:21.768Z,20.33
2023-02-17T04:25:48.858Z,21.15
2023-02-17T04:28:15.845Z,21.35
2023-02-17T04:30:46.767Z,20.23
2023-02-17T04:33:13.420Z,21.30
2023-02-17T04:35:40.205Z,21.10
2023-02-17T04:38:10.553Z,21.20
2023-02-17T04:40:39.951Z,20.65
2023-02-17T04:43:06.504Z,21.15
2023-02-17T04:45:37.047Z,19.65
2023-02-17T04:48:04.113Z,20.20
2023-02-17T04:50:30.714Z,19.55
2023-02-17T04:52:57.224Z,20.23
2023-02-17T04:55:23.684Z,20.15
2023-02-17T04:57:50.194Z,20.73
2023-02-17T05:00:16.877Z,18.73
2023-02-17T05:02:43.346Z,19.15
2023-02-17T05:05:10.120Z,21.38
2023-02-17T05:07:36.602Z,20.70
2023-02-17T05:10:03.368Z,24.85
2023-02-17T05:12:29.900Z,22.50
2023-02-17T05:14:56.354Z,23.85
2023-02-17T05:17:22.790Z,23.25
2023-02-17T05:19:49.206Z,22.67
2023-02-17T05:22:15.726Z,23.90
2023-02-17T05:24:42.195Z,21.70
2023-02-17T05:27:11.049Z,23.98
2023-02-17T05:29:37.522Z,23.27
2023-02-17T05:32:04.000Z,21.88
2023-02-17T05:34:30.656Z,21.42
2023-02-17T05:36:57.161Z,25.25
2023-02-17T05:39:23.631Z,25.98
2023-02-17T05:41:52.360Z,25.05
2023-02-17T05:44:21.718Z,24.58
2023-02-17T05:46:48.251Z,23.15
2023-02-17T05:49:14.802Z,23.88
2023-02-17T05:51:41.303Z,23.13
2023-02-17T05:54:07.792Z,23.52
2023-02-17T05:56:34.345Z,22.83
2023-02-17T05:59:01.085Z,22.17
2023-02-17T06:01:27.909Z,23.75
2023-02-17T06:03:54.423Z,23.02
2023-02-17T06:06:20.915Z,22.17
2023-02-17T06:08:47.397Z,21.08
2023-02-17T06:11:13.949Z,20.70
2023-02-17T06:13:40.434Z,21.13
2023-02-17T06:16:07.426Z,26.88
2023-02-17T06:18:34.436Z,24.80
2023-02-17T06:21:00.974Z,24.00
2023-02-17T06:23:30.080Z,21.73
2023-02-17T06:25:56.610Z,19.48
2023-02-17T06:28:23.097Z,19.42
2023-02-17T06:30:49.581Z,21.73
2023-02-17T06:33:16.145Z,21.30
2023-02-17T06:35:44.459Z,21.80
2023-02-17T06:38:10.968Z,21.77
2023-02-17T06:40:37.460Z,20.08
2023-02-17T06:43:03.983Z,20.83
2023-02-17T06:45:30.561Z,20.77
2023-02-17T06:47:57.057Z,20.38
2023-02-17T06:50:23.547Z,20.05
2023-02-17T06:52:50.026Z,20.05
2023-02-17T06:55:16.503Z,20.10
2023-02-17T06:57:43.040Z,18.30
2023-02-17T07:00:10.241Z,18.77
2023-02-17T07:02:38.519Z,20.08
2023-02-17T07:05:06.829Z,19.00
2023-02-17T07:07:33.461Z,20.52
2023-02-17T07:10:00.123Z,19.60
2023-02-17T07:12:28.375Z,19.35
2023-02-17T07:14:54.880Z,18.65
2023-02-17T07:17:23.716Z,17.75
2023-02-17T07:19:50.205Z,17.42
2023-02-17T07:22:16.785Z,14.90
2023-02-17T07:24:43.279Z,13.00
2023-02-17T07:27:10.829Z,6.22
2023-02-17T07:29:37.532Z,3.97
2023-02-17T07:32:04.296Z,3.63
2023-02-17T07:34:33.105Z,3.90
2023-02-17T07:36:59.614Z,3.47
2023-02-17T07:39:26.195Z,3.50
2023-02-17T07:41:52.647Z,3.17
2023-02-17T07:44:21.385Z,3.38
2023-02-17T07:46:47.969Z,3.40
2023-02-17T07:49:14.817Z,3.10
2023-02-17T07:51:41.335Z,3.00
2023-02-17T07:54:10.043Z,3.10
2023-02-17T07:56:36.633Z,3.25
2023-02-17T07:59:03.089Z,3.03
2023-02-17T08:01:29.847Z,3.10
2023-02-17T08:03:56.418Z,3.42
2023-02-17T08:06:25.477Z,3.38
2023-02-17T08:09:11.895Z,3.50
2023-02-17T08:11:58.062Z,3.83
2023-02-17T08:14:27.061Z,3.17
2023-02-17T08:16:53.894Z,3.17
2023-02-17T08:19:20.963Z,3.13
2023-02-17T08:21:47.809Z,3.00
2023-02-17T08:24:16.347Z,3.20
2023-02-17T08:26:42.953Z,3.03
2023-02-17T08:29:09.452Z,3.00
2023-02-17T08:31:36.899Z,2.65
2023-02-17T08:34:08.353Z,2.80
2023-02-17T08:36:37.438Z,2.67
2023-02-17T08:39:10.883Z,2.78
2023-02-17T08:41:39.305Z,3.13
2023-02-17T08:44:12.289Z,2.80
2023-02-17T08:46:39.477Z,2.90
2023-02-17T08:49:07.133Z,2.80
2023-02-17T08:51:36.515Z,2.47
2023-02-17T08:54:06.341Z,2.80
2023-02-17T08:56:33.910Z,2.95
2023-02-17T08:59:02.765Z,2.65
2023-02-17T09:01:29.853Z,2.95
2023-02-17T09:03:58.000Z,2.88
2023-02-17T09:06:24.907Z,2.70
2023-02-17T09:08:51.467Z,2.90
2023-02-17T09:11:19.775Z,2.95
2023-02-17T09:13:46.608Z,3.20
2023-02-17T09:16:13.066Z,2.90
2023-02-17T09:18:39.678Z,2.67
2023-02-17T09:21:08.638Z,2.70
2023-02-17T09:23:35.314Z,2.90
2023-02-17T09:26:06.779Z,2.78
2023-02-17T09:28:34.519Z,2.58
2023-02-17T09:31:17.552Z,2.20
2023-02-17T09:33:44.776Z,2.38
2023-02-17T09:36:15.434Z,2.58
2023-02-17T09:38:42.850Z,2.65
2023-02-17T09:41:38.662Z,2.22
2023-02-17T09:44:10.175Z,2.63
2023-02-17T09:46:59.480Z,2.90
2023-02-17T09:49:42.344Z,2.90
2023-02-17T09:52:12.335Z,2.75
2023-02-17T09:54:53.813Z,2.42
2023-02-17T09:57:23.595Z,2.45
2023-02-17T09:59:55.750Z,2.90
2023-02-17T10:02:34.189Z,2.80
2023-02-17T10:05:06.080Z,2.85
2023-02-17T10:07:41.877Z,2.80
2023-02-17T10:10:22.699Z,2.15
2023-02-17T10:12:55.622Z,2.50
2023-02-17T10:15:29.267Z,2.47
2023-02-17T10:18:13.882Z,2.45
2023-02-17T10:20:45.212Z,2.40
2023-02-17T10:23:32.449Z,2.25
2023-02-17T10:26:20.393Z,2.08
2023-02-17T10:29:00.621Z,2.85
2023-02-17T10:31:46.770Z,3.10
2023-02-17T10:34:13.440Z,2.60
2023-02-17T10:36:52.231Z,2.55
2023-02-17T10:39:28.129Z,2.40
2023-02-17T10:41:56.186Z,2.13
2023-02-17T10:44:25.784Z,2.33
2023-02-17T10:46:54.204Z,2.25
2023-02-17T10:49:31.488Z,2.60
2023-02-17T10:52:37.930Z,2.47
2023-02-17T10:55:23.295Z,2.22
2023-02-17T10:57:57.529Z,2.08
2023-02-17T11:00:24.827Z,2.60
2023-02-17T11:02:52.346Z,2.45
2023-02-17T11:05:29.832Z,2.20
2023-02-17T11:08:02.798Z,2.17
2023-02-17T11:10:35.682Z,2.43
2023-02-17T11:13:04.496Z,1.50
2023-02-17T11:15:45.330Z,2.00
2023-02-17T11:18:21.721Z,2.40
2023-02-17T11:20:48.720Z,1.90
2023-02-17T11:23:15.327Z,2.00
2023-02-17T11:25:54.838Z,2.25
2023-02-17T11:28:26.078Z,2.13
2023-02-17T11:30:59.395Z,3.25
2023-02-17T11:33:35.507Z,2.35
2023-02-17T11:36:03.544Z,2.45
2023-02-17T11:38:40.632Z,2.00
2023-02-17T11:41:08.467Z,2.05
2023-02-17T11:43:36.392Z,1.90
2023-02-17T11:46:23.124Z,2.28
2023-02-17T11:49:14.732Z,2.00
2023-02-17T11:51:59.785Z,2.05
2023-02-17T11:54:40.469Z,2.03
2023-02-17T11:57:25.235Z,1.85
2023-02-17T12:00:16.212Z,2.00
2023-02-17T12:02:49.052Z,1.95
2023-02-17T12:05:21.699Z,2.13
2023-02-17T12:08:22.190Z,1.98
2023-02-17T12:11:00.935Z,1.85
2023-02-17T12:13:36.435Z,1.77
2023-02-17T12:16:24.201Z,1.85
2023-02-17T12:19:11.253Z,1.88
2023-02-17T12:21:50.053Z,2.47
2023-02-17T12:24:45.543Z,1.92
2023-02-17T12:27:34.438Z,2.50
2023-02-17T12:30:14.817Z,9.77
2023-02-17T12:32:55.737Z,5.90
2023-02-17T12:35:27.155Z,3.25
2023-02-17T12:37:56.709Z,3.53
2023-02-17T12:40:35.568Z,1.90
2023-02-17T12:43:27.292Z,3.13
2023-02-17T12:45:58.307Z,2.25
2023-02-17T12:48:45.113Z,2.55
2023-02-17T12:51:28.766Z,13.88
2023-02-17T12:54:18.913Z,4.50
2023-02-17T12:56:57.493Z,3.55
2023-02-17T12:59:33.612Z,2.22
2023-02-17T13:02:04.034Z,1.80
2023-02-17T13:04:33.084Z,2.38
2023-02-17T13:07:31.358Z,1.88
2023-02-17T13:09:58.344Z,1.55
2023-02-17T13:12:25.123Z,1.95
2023-02-17T13:14:54.915Z,2.20
2023-02-17T13:17:39.644Z,1.67
2023-02-17T13:20:12.385Z,1.67
2023-02-17T13:22:42.520Z,1.70
2023-02-17T13:25:28.282Z,1.83
2023-02-17T13:27:55.141Z,2.50
2023-02-17T13:30:21.977Z,2.00
2023-02-17T13:33:04.190Z,2.00
2023-02-17T13:35:34.640Z,2.13
2023-02-17T13:38:01.585Z,2.05
2023-02-17T13:40:42.573Z,1.88
2023-02-17T13:43:19.963Z,1.42
2023-02-17T13:45:56.997Z,2.08
2023-02-17T13:48:33.613Z,1.65
2023-02-17T13:51:21.207Z,1.80
2023-02-17T13:53:51.290Z,1.52
2023-02-17T13:56:29.572Z,1.88
2023-02-17T13:59:18.471Z,1.80
2023-02-17T14:01:47.568Z,2.22
2023-02-17T14:04:26.744Z,1.60
2023-02-17T14:06:56.341Z,1.80
2023-02-17T14:09:32.795Z,1.60
2023-02-17T14:12:02.872Z,2.28
2023-02-17T14:14:32.621Z,1.67
2023-02-17T14:17:06.928Z,1.58
2023-02-17T14:19:45.472Z,1.58
2023-02-17T14:22:28.866Z,1.85
2023-02-17T14:25:07.800Z,1.70
2023-02-17T14:27:51.214Z,1.80
2023-02-17T14:30:37.843Z,1.42
2023-02-17T14:33:15.468Z,1.70
2023-02-17T14:35:56.224Z,1.27
2023-02-17T14:38:32.277Z,1.88
2023-02-17T14:41:01.074Z,7.72
2023-02-17T14:43:28.295Z,1.30
2023-02-17T14:45:54.861Z,1.67
2023-02-17T14:48:21.704Z,2.28
2023-02-17T14:50:48.772Z,1.45
2023-02-17T14:53:21.514Z,2.80
2023-02-17T14:55:53.632Z,1.52
2023-02-17T14:58:23.549Z,2.50
2023-02-17T15:00:50.715Z,2.13
2023-02-17T15:03:17.509Z,2.00
2023-02-17T15:05:46.830Z,1.90
2023-02-17T15:08:17.357Z,1.90
2023-02-17T15:10:44.649Z,1.80
2023-02-17T15:13:20.645Z,1.60
2023-02-17T15:15:49.475Z,3.58
2023-02-17T15:18:18.688Z,2.22
2023-02-17T15:20:50.445Z,2.25
2023-02-17T15:23:20.996Z,1.88
2023-02-17T15:25:48.774Z,2.00
2023-02-17T15:28:20.373Z,2.10
2023-02-17T15:30:56.479Z,2.10
2023-02-17T15:33:24.455Z,2.03
2023-02-17T15:35:53.767Z,2.20
2023-02-17T15:38:23.585Z,2.10
2023-02-17T15:40:56.754Z,2.63
2023-02-17T15:43:24.310Z,2.38
2023-02-17T15:45:50.949Z,2.75
2023-02-17T15:48:30.204Z,2.70
2023-02-17T15:50:56.821Z,2.55
2023-02-17T15:53:23.456Z,2.78
2023-02-17T15:55:51.430Z,2.45
2023-02-17T15:58:21.994Z,2.50
2023-02-17T16:00:51.349Z,2.63
2023-02-17T16:03:18.534Z,4.45
2023-02-17T16:05:45.207Z,6.13
2023-02-17T16:08:12.237Z,2.78
2023-02-17T16:10:42.186Z,5.50
2023-02-17T16:13:14.636Z,5.07
2023-02-17T16:15:41.820Z,3.15
2023-02-17T16:18:19.789Z,2.40
2023-02-17T16:20:46.486Z,1.92
2023-02-17T16:23:13.253Z,2.22
2023-02-17T16:25:43.405Z,3.05
2023-02-17T16:28:22.021Z,2.35
2023-02-17T16:30:49.694Z,1.92
2023-02-17T16:33:17.123Z,2.05
2023-02-17T16:35:44.077Z,3.95
2023-02-17T16:38:23.325Z,3.25
2023-02-17T16:40:51.968Z,3.95
2023-02-17T16:43:21.370Z,3.10
2023-02-17T16:45:53.164Z,2.90
2023-02-17T16:48:22.318Z,2.28
2023-02-17T16:50:48.980Z,2.85
2023-02-17T16:53:15.733Z,2.97
2023-02-17T16:55:42.754Z,3.83
2023-02-17T16:58:22.449Z,5.63
2023-02-17T17:00:52.678Z,2.72
2023-02-17T17:03:20.307Z,2.20
2023-02-17T17:05:47.021Z,1.80
2023-02-17T17:08:16.622Z,2.22
2023-02-17T17:10:46.222Z,2.05
2023-02-17T17:13:15.724Z,2.22
2023-02-17T17:15:44.997Z,2.40
2023-02-17T17:18:21.071Z,2.05
2023-02-17T17:20:50.962Z,1.83
2023-02-17T17:23:20.851Z,1.80
2023-02-17T17:25:48.737Z,1.90
2023-02-17T17:28:19.553Z,1.90
2023-02-17T17:30:47.145Z,1.55
2023-02-17T17:33:13.863Z,1.52
2023-02-17T17:35:40.769Z,1.73
2023-02-17T17:38:09.962Z,1.60
2023-02-17T17:40:48.524Z,1.67
2023-02-17T17:43:23.489Z,1.77
2023-02-17T17:45:51.449Z,1.65
2023-02-17T17:48:20.814Z,1.50
2023-02-17T17:50:49.579Z,1.63
2023-02-17T17:53:16.254Z,2.63
2023-02-17T17:55:42.876Z,1.80
2023-02-17T17:58:11.819Z,1.48
2023-02-17T18:00:38.469Z,1.40
2023-02-17T18:03:05.193Z,2.42
2023-02-17T18:05:34.636Z,1.67
2023-02-17T18:08:01.381Z,1.90
2023-02-17T18:10:28.162Z,2.63
2023-02-17T18:12:55.645Z,7.90
2023-02-17T18:15:22.311Z,3.53
2023-02-17T18:17:49.488Z,1.63
2023-02-17T18:20:16.199Z,1.15
2023-02-17T18:22:45.033Z,1.40
2023-02-17T18:25:11.913Z,2.10
2023-02-17T18:27:44.652Z,2.45
2023-02-17T18:30:14.514Z,3.05
2023-02-17T18:32:44.256Z,1.48
2023-02-17T18:35:12.701Z,1.60
2023-02-17T18:37:41.031Z,1.10
2023-02-17T18:40:12.497Z,2.50
2023-02-17T18:42:40.590Z,1.60
2023-02-17T18:45:07.781Z,1.30
2023-02-17T18:47:34.374Z,1.20
2023-02-17T18:50:00.974Z,1.45
2023-02-17T18:52:27.601Z,1.38
2023-02-17T18:54:54.201Z,1.42
2023-02-17T18:57:20.854Z,1.85
2023-02-17T18:59:50.207Z,1.67
2023-02-17T19:02:17.010Z,1.42
2023-02-17T19:04:43.615Z,1.40
2023-02-17T19:07:10.712Z,1.33
2023-02-17T19:09:39.507Z,1.20
2023-02-17T19:12:13.308Z,1.23
2023-02-17T19:17:10.989Z,1.30
2023-02-17T19:19:41.639Z,1.13
2023-02-17T19:22:11.482Z,1.40
2023-02-17T19:24:39.692Z,1.30
2023-02-17T19:27:09.439Z,1.25
2023-02-17T19:29:36.054Z,1.20
2023-02-17T19:32:06.047Z,1.15
2023-02-17T19:34:32.731Z,1.08
2023-02-17T19:36:59.436Z,1.15
2023-02-17T19:39:30.849Z,1.40
2023-02-17T19:41:57.516Z,1.02
2023-02-17T19:44:26.475Z,1.10
2023-02-17T19:46:55.315Z,1.00
2023-02-17T19:49:24.027Z,1.65
2023-02-17T19:51:50.635Z,1.02
2023-02-17T19:54:17.250Z,1.15
2023-02-17T19:56:43.882Z,1.20
2023-02-17T19:59:10.592Z,0.85
2023-02-17T20:01:37.299Z,1.10
2023-02-17T20:04:05.084Z,0.98
2023-02-17T20:06:37.750Z,1.10
2023-02-17T20:09:08.386Z,1.00
2023-02-17T20:11:35.093Z,0.90
2023-02-17T20:14:02.797Z,1.00
2023-02-17T20:16:30.620Z,0.98
2023-02-17T20:18:57.288Z,1.20
2023-02-17T20:21:28.265Z,1.08
2023-02-17T20:23:55.757Z,1.00
2023-02-17T20:26:27.323Z,1.10
2023-02-17T20:28:54.314Z,1.20
2023-02-17T20:31:21.018Z,1.30
2023-02-17T20:33:48.293Z,1.30
2023-02-17T20:36:15.165Z,1.17
2023-02-17T20:38:42.179Z,1.40
2023-02-17T20:41:10.193Z,0.95
2023-02-17T20:43:39.706Z,1.00
2023-02-17T20:46:07.033Z,0.88
2023-02-17T20:48:34.083Z,1.15
2023-02-17T20:51:00.823Z,1.08
2023-02-17T20:53:27.554Z,1.02
2023-02-17T20:55:54.209Z,0.95
2023-02-17T20:58:23.890Z,1.25
2023-02-17T21:00:50.887Z,1.10
2023-02-17T21:03:17.614Z,1.00
2023-02-17T21:05:44.386Z,0.88
2023-02-17T21:08:11.016Z,1.17
2023-02-17T21:10:40.707Z,1.15
2023-02-17T21:13:07.573Z,1.10
2023-02-17T21:15:34.447Z,1.20
2023-02-17T21:18:01.109Z,1.40
2023-02-17T21:20:27.679Z,1.80
2023-02-17T21:22:54.696Z,1.10
2023-02-17T21:25:21.256Z,1.05
2023-02-17T21:27:48.013Z,0.80
2023-02-17T21:30:14.974Z,1.10
2023-02-17T21:32:42.047Z,1.15
2023-02-17T21:35:10.471Z,1.25
2023-02-17T21:37:38.941Z,1.10
2023-02-17T21:40:10.001Z,1.00
2023-02-17T21:42:56.355Z,1.10
2023-02-17T21:45:23.952Z,0.90
2023-02-17T21:47:53.250Z,1.15
2023-02-17T21:50:23.240Z,1.30
2023-02-17T21:52:54.280Z,1.20
2023-02-17T21:55:20.935Z,1.33
2023-02-17T21:57:49.934Z,1.30
2023-02-17T22:00:19.567Z,1.40
2023-02-17T22:02:46.127Z,1.55
2023-02-17T22:05:12.923Z,1.38
2023-02-17T22:07:39.468Z,1.38
2023-02-17T22:10:07.080Z,0.90
2023-02-17T22:12:37.730Z,1.30
2023-02-17T22:15:05.863Z,1.30
2023-02-17T22:17:34.997Z,1.33
2023-02-17T22:20:04.798Z,1.38
2023-02-17T22:22:36.129Z,1.25
2023-02-17T22:25:02.738Z,1.52
2023-02-17T22:27:29.391Z,1.30
2023-02-17T22:29:56.891Z,1.60
2023-02-17T22:32:23.696Z,1.20
2023-02-17T22:34:50.345Z,1.30
2023-02-17T22:37:16.959Z,1.30
2023-02-17T22:39:43.546Z,1.33
2023-02-17T22:42:10.133Z,1.20
2023-02-17T22:44:39.035Z,1.40
2023-02-17T22:47:05.682Z,1.40
2023-02-17T22:49:34.350Z,1.40
2023-02-17T22:52:00.931Z,1.60
2023-02-17T22:54:27.595Z,1.33
2023-02-17T22:56:54.211Z,1.20
2023-02-17T22:59:20.798Z,1.23
2023-02-17T23:01:47.509Z,1.30
2023-02-17T23:04:14.846Z,1.45
2023-02-17T23:06:42.466Z,1.40
2023-02-17T23:09:15.340Z,1.30
2023-02-17T23:11:52.365Z,5.47
2023-02-17T23:14:24.532Z,4.57
2023-02-17T23:16:54.506Z,2.88
2023-02-17T23:19:22.366Z,1.20
2023-02-17T23:21:51.929Z,3.15
2023-02-17T23:24:19.951Z,3.63
2023-02-17T23:26:49.814Z,4.47
2023-02-17T23:29:17.386Z,1.60
2023-02-17T23:31:46.380Z,1.40
2023-02-17T23:34:15.775Z,1.60
2023-02-17T23:36:43.869Z,1.33
2023-02-17T23:39:10.866Z,1.35
2023-02-17T23:41:38.387Z,1.50
2023-02-17T23:44:07.225Z,1.48
2023-02-17T23:46:34.469Z,1.42
2023-02-17T23:49:01.211Z,1.48
2023-02-17T23:51:27.859Z,1.30
2023-02-17T23:53:54.489Z,1.10
2023-02-17T23:56:25.546Z,1.40
2023-02-17T23:58:52.523Z,1.42
